Shady Beach, South Dakota
Current Conditions -  °F | °C
As of 1:54 AM on Saturday 20 Dec 2014 (Local Time) from KVVV Reporting Station
Overcast Overcast  
Wind Chill: 25°   Ceiling: 800
Heat Index: 30°   Visibility: 7mi
Dew Point: 27°   Wind: 5mph
Humidity: 86%   Direction: 190°S
Pressure: 30.05"   Gusts: NA
Location:  45.3641°N, 96.6682°W
Report Text: KVVV 200754Z AUTO 19004KT 7SM OVC008 M01/M03 A3005 RMK AO2
Loading
Personal Weather Stations






























Interactive Weather Map New forecast layout! Learn more

10-Day Weather Forecast

Advertisements
Track Severe Weather on mobile